sensor_id;sensor_type;location;lat;lon;timestamp;temperature;humidity
66740;DHT22;53653;52.188;8.602;2022-08-11T00:01:16;20.07;56.99
66740;DHT22;53653;52.188;8.602;2022-08-11T00:03:45;19.98;57.62
66740;DHT22;53653;52.188;8.602;2022-08-11T00:06:12;19.94;58.11
66740;DHT22;53653;52.188;8.602;2022-08-11T00:08:39;19.85;58.58
66740;DHT22;53653;52.188;8.602;2022-08-11T00:11:07;19.78;59.02
66740;DHT22;53653;52.188;8.602;2022-08-11T00:13:36;19.73;59.44
66740;DHT22;53653;52.188;8.602;2022-08-11T00:16:03;19.66;59.92
66740;DHT22;53653;52.188;8.602;2022-08-11T00:18:41;19.61;60.13
66740;DHT22;53653;52.188;8.602;2022-08-11T00:21:07;19.54;60.47
66740;DHT22;53653;52.188;8.602;2022-08-11T00:23:40;19.39;60.73
66740;DHT22;53653;52.188;8.602;2022-08-11T00:26:06;19.34;60.97
66740;DHT22;53653;52.188;8.602;2022-08-11T00:28:33;19.23;61.13
66740;DHT22;53653;52.188;8.602;2022-08-11T00:31:27;19.15;61.28
66740;DHT22;53653;52.188;8.602;2022-08-11T00:33:53;19.23;61.19
66740;DHT22;53653;52.188;8.602;2022-08-11T00:36:37;19.26;61.04
66740;DHT22;53653;52.188;8.602;2022-08-11T00:39:05;19.29;60.92
66740;DHT22;53653;52.188;8.602;2022-08-11T01:01:53;18.92;62.60
66740;DHT22;53653;52.188;8.602;2022-08-11T01:04:38;18.87;62.86
66740;DHT22;53653;52.188;8.602;2022-08-11T01:18:52;18.72;63.47
66740;DHT22;53653;52.188;8.602;2022-08-11T01:30:02;18.48;64.19
66740;DHT22;53653;52.188;8.602;2022-08-11T01:40:46;18.48;64.54
66740;DHT22;53653;52.188;8.602;2022-08-11T01:46:44;18.51;63.63
66740;DHT22;53653;52.188;8.602;2022-08-11T01:49:24;18.53;63.30
66740;DHT22;53653;52.188;8.602;2022-08-11T01:59:51;18.38;64.69
66740;DHT22;53653;52.188;8.602;2022-08-11T02:02:30;18.34;64.83
66740;DHT22;53653;52.188;8.602;2022-08-11T02:10:57;18.07;65.72
66740;DHT22;53653;52.188;8.602;2022-08-11T02:14:30;18.07;66.04
66740;DHT22;53653;52.188;8.602;2022-08-11T02:19:53;18.04;66.39
66740;DHT22;53653;52.188;8.602;2022-08-11T02:22:59;17.99;66.53
66740;DHT22;53653;52.188;8.602;2022-08-11T02:28:45;17.97;65.95
66740;DHT22;53653;52.188;8.602;2022-08-11T02:40:16;17.71;66.71
66740;DHT22;53653;52.188;8.602;2022-08-11T02:50:30;17.55;67.05
66740;DHT22;53653;52.188;8.602;2022-08-11T02:55:51;17.51;66.66
66740;DHT22;53653;52.188;8.602;2022-08-11T03:01:53;17.37;67.84
66740;DHT22;53653;52.188;8.602;2022-08-11T03:07:23;17.31;67.98
66740;DHT22;53653;52.188;8.602;2022-08-11T03:12:40;17.24;68.33
66740;DHT22;53653;52.188;8.602;2022-08-11T03:15:48;17.28;68.45
66740;DHT22;53653;52.188;8.602;2022-08-11T03:19:07;17.30;67.99
66740;DHT22;53653;52.188;8.602;2022-08-11T03:25:28;17.23;68.31
66740;DHT22;53653;52.188;8.602;2022-08-11T03:39:08;17.10;68.75
66740;DHT22;53653;52.188;8.602;2022-08-11T03:50:23;17.00;69.40
66740;DHT22;53653;52.188;8.602;2022-08-11T04:21:25;16.84;70.15
66740;DHT22;53653;52.188;8.602;2022-08-11T04:35:47;17.08;69.44
66740;DHT22;53653;52.188;8.602;2022-08-11T04:38:46;17.14;69.07
66740;DHT22;53653;52.188;8.602;2022-08-11T04:50:07;17.45;68.41
66740;DHT22;53653;52.188;8.602;2022-08-11T04:56:22;17.59;68.11
66740;DHT22;53653;52.188;8.602;2022-08-11T05:16:58;18.40;64.45
66740;DHT22;53653;52.188;8.602;2022-08-11T05:19:47;18.71;63.65
66740;DHT22;53653;52.188;8.602;2022-08-11T05:22:33;18.91;63.55
66740;DHT22;53653;52.188;8.602;2022-08-11T05:25:24;19.15;62.95
66740;DHT22;53653;52.188;8.602;2022-08-11T05:28:12;19.33;62.85
66740;DHT22;53653;52.188;8.602;2022-08-11T05:31:02;19.45;62.63
66740;DHT22;53653;52.188;8.602;2022-08-11T05:33:51;19.51;62.39
66740;DHT22;53653;52.188;8.602;2022-08-11T05:36:50;19.74;61.76
66740;DHT22;53653;52.188;8.602;2022-08-11T05:39:25;19.91;61.11
66740;DHT22;53653;52.188;8.602;2022-08-11T05:42:10;20.02;59.12
66740;DHT22;53653;52.188;8.602;2022-08-11T05:45:00;19.73;59.29
66740;DHT22;53653;52.188;8.602;2022-08-11T05:47:48;19.61;59.77
66740;DHT22;53653;52.188;8.602;2022-08-11T05:50:32;19.67;59.89
66740;DHT22;53653;52.188;8.602;2022-08-11T05:53:17;20.04;58.80
66740;DHT22;53653;52.188;8.602;2022-08-11T05:56:05;20.12;58.05
66740;DHT22;53653;52.188;8.602;2022-08-11T05:58:49;19.94;58.24
66740;DHT22;53653;52.188;8.602;2022-08-11T06:01:29;19.92;57.66
66740;DHT22;53653;52.188;8.602;2022-08-11T06:03:57;20.02;57.53
66740;DHT22;53653;52.188;8.602;2022-08-11T06:07:06;20.30;56.73
66740;DHT22;53653;52.188;8.602;2022-08-11T06:12:05;20.28;56.78
66740;DHT22;53653;52.188;8.602;2022-08-11T06:14:33;20.32;56.48
66740;DHT22;53653;52.188;8.602;2022-08-11T06:17:02;20.32;56.20
66740;DHT22;53653;52.188;8.602;2022-08-11T06:19:33;20.26;55.70
66740;DHT22;53653;52.188;8.602;2022-08-11T06:22:01;20.07;56.36
66740;DHT22;53653;52.188;8.602;2022-08-11T06:24:27;20.36;55.64
66740;DHT22;53653;52.188;8.602;2022-08-11T06:26:54;20.57;55.19
66740;DHT22;53653;52.188;8.602;2022-08-11T06:29:21;20.66;55.30
66740;DHT22;53653;52.188;8.602;2022-08-11T06:31:59;20.74;54.60
66740;DHT22;53653;52.188;8.602;2022-08-11T06:34:37;21.04;54.09
66740;DHT22;53653;52.188;8.602;2022-08-11T06:37:16;21.00;53.84
66740;DHT22;53653;52.188;8.602;2022-08-11T06:39:47;21.21;53.29
66740;DHT22;53653;52.188;8.602;2022-08-11T06:43:24;21.28;53.56
66740;DHT22;53653;52.188;8.602;2022-08-11T06:47:53;22.04;51.78
66740;DHT22;53653;52.188;8.602;2022-08-11T06:50:21;22.10;50.32
66740;DHT22;53653;52.188;8.602;2022-08-11T06:53:07;22.24;50.29
66740;DHT22;53653;52.188;8.602;2022-08-11T06:55:41;22.37;49.69
66740;DHT22;53653;52.188;8.602;2022-08-11T06:58:36;23.07;48.29
66740;DHT22;53653;52.188;8.602;2022-08-11T07:01:34;22.82;47.35
66740;DHT22;53653;52.188;8.602;2022-08-11T07:04:08;22.57;48.09
66740;DHT22;53653;52.188;8.602;2022-08-11T07:06:58;22.99;47.62
66740;DHT22;53653;52.188;8.602;2022-08-11T07:10:02;22.86;47.49
66740;DHT22;53653;52.188;8.602;2022-08-11T07:12:51;22.88;48.43
66740;DHT22;53653;52.188;8.602;2022-08-11T07:15:37;23.16;48.29
66740;DHT22;53653;52.188;8.602;2022-08-11T07:18:09;23.19;48.40
66740;DHT22;53653;52.188;8.602;2022-08-11T07:21:11;23.82;47.48
66740;DHT22;53653;52.188;8.602;2022-08-11T07:23:58;24.39;45.93
66740;DHT22;53653;52.188;8.602;2022-08-11T07:26:48;24.91;45.69
66740;DHT22;53653;52.188;8.602;2022-08-11T07:29:34;25.11;44.26
66740;DHT22;53653;52.188;8.602;2022-08-11T07:32:11;25.49;43.95
66740;DHT22;53653;52.188;8.602;2022-08-11T07:34:39;25.62;43.11
66740;DHT22;53653;52.188;8.602;2022-08-11T07:37:11;25.39;43.05
66740;DHT22;53653;52.188;8.602;2022-08-11T07:39:41;25.34;43.39
66740;DHT22;53653;52.188;8.602;2022-08-11T07:42:11;25.31;44.05
66740;DHT22;53653;52.188;8.602;2022-08-11T07:44:39;26.01;42.41
66740;DHT22;53653;52.188;8.602;2022-08-11T07:47:24;25.34;44.25
66740;DHT22;53653;52.188;8.602;2022-08-11T07:50:09;25.75;42.25
66740;DHT22;53653;52.188;8.602;2022-08-11T07:52:55;26.33;41.05
66740;DHT22;53653;52.188;8.602;2022-08-11T07:55:23;26.52;40.74
66740;DHT22;53653;52.188;8.602;2022-08-11T07:57:59;25.89;42.17
66740;DHT22;53653;52.188;8.602;2022-08-11T08:00:46;25.77;43.55
66740;DHT22;53653;52.188;8.602;2022-08-11T08:03:32;26.06;42.29
66740;DHT22;53653;52.188;8.602;2022-08-11T08:06:16;26.62;41.74
66740;DHT22;53653;52.188;8.602;2022-08-11T08:09:02;26.68;41.42
66740;DHT22;53653;52.188;8.602;2022-08-11T08:11:47;26.68;41.00
66740;DHT22;53653;52.188;8.602;2022-08-11T08:14:33;26.58;39.15
66740;DHT22;53653;52.188;8.602;2022-08-11T08:17:18;27.12;39.22
66740;DHT22;53653;52.188;8.602;2022-08-11T08:20:02;26.78;38.26
66740;DHT22;53653;52.188;8.602;2022-08-11T08:22:29;26.81;39.26
66740;DHT22;53653;52.188;8.602;2022-08-11T08:24:55;27.36;38.54
66740;DHT22;53653;52.188;8.602;2022-08-11T08:27:21;27.24;38.78
66740;DHT22;53653;52.188;8.602;2022-08-11T08:29:49;27.65;37.90
66740;DHT22;53653;52.188;8.602;2022-08-11T08:32:38;27.53;37.77
66740;DHT22;53653;52.188;8.602;2022-08-11T08:35:05;27.64;38.14
66740;DHT22;53653;52.188;8.602;2022-08-11T08:37:31;28.29;36.57
66740;DHT22;53653;52.188;8.602;2022-08-11T08:39:57;28.09;36.32
66740;DHT22;53653;52.188;8.602;2022-08-11T08:42:25;28.09;36.09
66740;DHT22;53653;52.188;8.602;2022-08-11T08:45:04;28.10;36.50
66740;DHT22;53653;52.188;8.602;2022-08-11T08:47:34;28.35;36.42
66740;DHT22;53653;52.188;8.602;2022-08-11T08:50:03;28.98;35.22
66740;DHT22;53653;52.188;8.602;2022-08-11T08:52:33;28.88;34.55
66740;DHT22;53653;52.188;8.602;2022-08-11T08:55:04;28.94;34.24
66740;DHT22;53653;52.188;8.602;2022-08-11T08:57:32;29.10;33.54
66740;DHT22;53653;52.188;8.602;2022-08-11T09:00:02;29.55;33.07
66740;DHT22;53653;52.188;8.602;2022-08-11T09:02:29;29.03;33.61
66740;DHT22;53653;52.188;8.602;2022-08-11T09:04:57;28.80;34.04
66740;DHT22;53653;52.188;8.602;2022-08-11T09:07:24;28.45;34.26
66740;DHT22;53653;52.188;8.602;2022-08-11T09:09:56;28.55;33.68
66740;DHT22;53653;52.188;8.602;2022-08-11T09:12:26;28.60;33.85
66740;DHT22;53653;52.188;8.602;2022-08-11T09:14:53;28.70;32.59
66740;DHT22;53653;52.188;8.602;2022-08-11T09:17:40;29.16;32.14
66740;DHT22;53653;52.188;8.602;2022-08-11T09:20:12;30.04;31.90
66740;DHT22;53653;52.188;8.602;2022-08-11T09:22:40;30.00;31.68
66740;DHT22;53653;52.188;8.602;2022-08-11T09:25:28;29.63;31.44
66740;DHT22;53653;52.188;8.602;2022-08-11T09:28:13;29.77;31.02
66740;DHT22;53653;52.188;8.602;2022-08-11T09:30:41;30.01;30.70
66740;DHT22;53653;52.188;8.602;2022-08-11T09:33:09;30.35;30.28
66740;DHT22;53653;52.188;8.602;2022-08-11T09:35:37;29.74;30.61
66740;DHT22;53653;52.188;8.602;2022-08-11T09:38:09;29.90;29.82
66740;DHT22;53653;52.188;8.602;2022-08-11T09:40:54;29.51;29.35
66740;DHT22;53653;52.188;8.602;2022-08-11T09:43:20;29.49;29.28
66740;DHT22;53653;52.188;8.602;2022-08-11T09:46:05;28.88;29.49
66740;DHT22;53653;52.188;8.602;2022-08-11T09:48:44;29.21;29.31
66740;DHT22;53653;52.188;8.602;2022-08-11T09:51:11;29.58;29.69
66740;DHT22;53653;52.188;8.602;2022-08-11T09:53:39;29.41;29.48
66740;DHT22;53653;52.188;8.602;2022-08-11T09:56:17;29.25;28.99
66740;DHT22;53653;52.188;8.602;2022-08-11T09:59:12;29.52;28.65
66740;DHT22;53653;52.188;8.602;2022-08-11T10:01:43;29.76;28.25
66740;DHT22;53653;52.188;8.602;2022-08-11T10:04:15;29.49;29.33
66740;DHT22;53653;52.188;8.602;2022-08-11T10:06:43;29.93;28.76
66740;DHT22;53653;52.188;8.602;2022-08-11T10:09:38;29.72;28.74
66740;DHT22;53653;52.188;8.602;2022-08-11T10:12:08;30.18;28.09
66740;DHT22;53653;52.188;8.602;2022-08-11T10:14:43;29.82;29.77
66740;DHT22;53653;52.188;8.602;2022-08-11T10:17:30;29.66;29.51
66740;DHT22;53653;52.188;8.602;2022-08-11T10:19:58;30.20;28.70
66740;DHT22;53653;52.188;8.602;2022-08-11T10:22:26;30.06;29.02
66740;DHT22;53653;52.188;8.602;2022-08-11T10:25:12;29.80;29.68
66740;DHT22;53653;52.188;8.602;2022-08-11T10:27:57;30.18;29.43
66740;DHT22;53653;52.188;8.602;2022-08-11T10:30:25;30.21;29.54
66740;DHT22;53653;52.188;8.602;2022-08-11T10:33:13;30.76;29.10
66740;DHT22;53653;52.188;8.602;2022-08-11T10:35:59;31.47;27.59
66740;DHT22;53653;52.188;8.602;2022-08-11T10:38:26;31.88;27.49
66740;DHT22;53653;52.188;8.602;2022-08-11T10:40:53;31.81;27.60
66740;DHT22;53653;52.188;8.602;2022-08-11T10:43:38;31.10;28.30
66740;DHT22;53653;52.188;8.602;2022-08-11T10:46:08;30.54;28.63
66740;DHT22;53653;52.188;8.602;2022-08-11T10:48:54;31.03;28.24
66740;DHT22;53653;52.188;8.602;2022-08-11T10:51:20;30.79;28.61
66740;DHT22;53653;52.188;8.602;2022-08-11T10:53:47;30.18;29.46
66740;DHT22;53653;52.188;8.602;2022-08-11T10:56:35;31.07;28.46
66740;DHT22;53653;52.188;8.602;2022-08-11T10:59:26;31.44;27.89
66740;DHT22;53653;52.188;8.602;2022-08-11T11:01:52;32.13;27.02
66740;DHT22;53653;52.188;8.602;2022-08-11T11:04:58;30.88;28.60
66740;DHT22;53653;52.188;8.602;2022-08-11T11:07:36;30.32;28.96
66740;DHT22;53653;52.188;8.602;2022-08-11T11:10:05;30.44;29.30
66740;DHT22;53653;52.188;8.602;2022-08-11T11:12:41;30.61;28.73
66740;DHT22;53653;52.188;8.602;2022-08-11T11:15:28;30.83;28.44
66740;DHT22;53653;52.188;8.602;2022-08-11T11:20:42;31.91;26.97
66740;DHT22;53653;52.188;8.602;2022-08-11T11:25:57;30.64;29.29
66740;DHT22;53653;52.188;8.602;2022-08-11T11:34:16;31.65;27.70
66740;DHT22;53653;52.188;8.602;2022-08-11T11:36:47;31.81;27.26
66740;DHT22;53653;52.188;8.602;2022-08-11T11:39:18;31.98;27.09
66740;DHT22;53653;52.188;8.602;2022-08-11T11:41:44;31.95;27.54
66740;DHT22;53653;52.188;8.602;2022-08-11T11:44:12;31.85;27.58
66740;DHT22;53653;52.188;8.602;2022-08-11T11:46:38;31.30;27.46
66740;DHT22;53653;52.188;8.602;2022-08-11T11:49:06;31.51;27.29
66740;DHT22;53653;52.188;8.602;2022-08-11T11:51:35;30.44;27.55
66740;DHT22;53653;52.188;8.602;2022-08-11T11:54:01;30.89;27.00
66740;DHT22;53653;52.188;8.602;2022-08-11T11:56:29;30.47;27.66
66740;DHT22;53653;52.188;8.602;2022-08-11T11:58:55;30.76;28.06
66740;DHT22;53653;52.188;8.602;2022-08-11T12:01:39;30.72;27.93
66740;DHT22;53653;52.188;8.602;2022-08-11T12:04:08;31.30;27.21
66740;DHT22;53653;52.188;8.602;2022-08-11T12:06:35;31.22;27.49
66740;DHT22;53653;52.188;8.602;2022-08-11T12:09:02;31.51;26.85
66740;DHT22;53653;52.188;8.602;2022-08-11T12:11:28;31.29;27.41
66740;DHT22;53653;52.188;8.602;2022-08-11T12:14:16;31.71;26.96
66740;DHT22;53653;52.188;8.602;2022-08-11T12:16:44;31.99;26.67
66740;DHT22;53653;52.188;8.602;2022-08-11T12:19:15;31.77;26.56
66740;DHT22;53653;52.188;8.602;2022-08-11T12:21:42;31.95;26.82
66740;DHT22;53653;52.188;8.602;2022-08-11T12:24:30;31.41;27.25
66740;DHT22;53653;52.188;8.602;2022-08-11T12:27:15;31.00;27.22
66740;DHT22;53653;52.188;8.602;2022-08-11T12:29:53;31.10;27.48
66740;DHT22;53653;52.188;8.602;2022-08-11T12:32:20;30.61;28.03
66740;DHT22;53653;52.188;8.602;2022-08-11T12:34:47;31.02;27.70
66740;DHT22;53653;52.188;8.602;2022-08-11T12:37:15;30.55;27.47
66740;DHT22;53653;52.188;8.602;2022-08-11T12:39:46;31.15;27.26
66740;DHT22;53653;52.188;8.602;2022-08-11T12:42:32;31.38;26.78
66740;DHT22;53653;52.188;8.602;2022-08-11T12:45:18;31.51;26.48
66740;DHT22;53653;52.188;8.602;2022-08-11T12:48:06;31.48;26.85
66740;DHT22;53653;52.188;8.602;2022-08-11T12:51:10;31.22;26.71
66740;DHT22;53653;52.188;8.602;2022-08-11T12:54:01;31.53;26.62
66740;DHT22;53653;52.188;8.602;2022-08-11T12:56:37;31.30;26.68
66740;DHT22;53653;52.188;8.602;2022-08-11T12:59:22;31.34;27.08
66740;DHT22;53653;52.188;8.602;2022-08-11T13:02:10;31.64;26.83
66740;DHT22;53653;52.188;8.602;2022-08-11T13:04:55;31.22;26.89
66740;DHT22;53653;52.188;8.602;2022-08-11T13:07:25;31.07;27.80
66740;DHT22;53653;52.188;8.602;2022-08-11T13:09:52;31.22;27.36
66740;DHT22;53653;52.188;8.602;2022-08-11T13:12:18;31.19;27.51
66740;DHT22;53653;52.188;8.602;2022-08-11T13:15:04;31.27;27.32
66740;DHT22;53653;52.188;8.602;2022-08-11T13:17:30;30.97;27.36
66740;DHT22;53653;52.188;8.602;2022-08-11T13:19:59;30.82;26.98
66740;DHT22;53653;52.188;8.602;2022-08-11T13:22:27;31.43;26.84
66740;DHT22;53653;52.188;8.602;2022-08-11T13:24:54;31.41;26.98
66740;DHT22;53653;52.188;8.602;2022-08-11T13:27:22;31.07;27.27
66740;DHT22;53653;52.188;8.602;2022-08-11T13:29:49;31.48;26.70
66740;DHT22;53653;52.188;8.602;2022-08-11T13:32:19;31.34;26.64
66740;DHT22;53653;52.188;8.602;2022-08-11T13:34:46;31.54;26.56
66740;DHT22;53653;52.188;8.602;2022-08-11T13:37:13;31.89;26.12
66740;DHT22;53653;52.188;8.602;2022-08-11T13:39:41;31.82;26.30
66740;DHT22;53653;52.188;8.602;2022-08-11T13:42:13;31.67;27.07
66740;DHT22;53653;52.188;8.602;2022-08-11T13:44:40;31.86;26.60
66740;DHT22;53653;52.188;8.602;2022-08-11T13:47:09;31.27;27.24
66740;DHT22;53653;52.188;8.602;2022-08-11T13:49:38;31.29;27.26
66740;DHT22;53653;52.188;8.602;2022-08-11T13:52:05;31.40;27.64
66740;DHT22;53653;52.188;8.602;2022-08-11T13:54:35;31.81;26.87
66740;DHT22;53653;52.188;8.602;2022-08-11T13:57:06;32.36;26.61
66740;DHT22;53653;52.188;8.602;2022-08-11T13:59:32;32.50;26.08
66740;DHT22;53653;52.188;8.602;2022-08-11T14:02:05;32.36;26.24
66740;DHT22;53653;52.188;8.602;2022-08-11T14:04:47;32.19;26.76
66740;DHT22;53653;52.188;8.602;2022-08-11T14:07:17;32.22;26.37
66740;DHT22;53653;52.188;8.602;2022-08-11T14:09:45;32.37;25.65
66740;DHT22;53653;52.188;8.602;2022-08-11T14:12:15;32.23;25.90
66740;DHT22;53653;52.188;8.602;2022-08-11T14:15:13;31.94;26.40
66740;DHT22;53653;52.188;8.602;2022-08-11T14:17:47;31.99;25.98
66740;DHT22;53653;52.188;8.602;2022-08-11T14:20:17;31.68;26.10
66740;DHT22;53653;52.188;8.602;2022-08-11T14:22:44;31.71;26.13
66740;DHT22;53653;52.188;8.602;2022-08-11T14:25:13;31.80;26.23
66740;DHT22;53653;52.188;8.602;2022-08-11T14:27:42;31.80;26.36
66740;DHT22;53653;52.188;8.602;2022-08-11T14:30:09;31.84;24.98
66740;DHT22;53653;52.188;8.602;2022-08-11T14:32:55;31.85;25.58
66740;DHT22;53653;52.188;8.602;2022-08-11T14:35:21;31.51;26.33
66740;DHT22;53653;52.188;8.602;2022-08-11T14:37:46;31.46;25.29
66740;DHT22;53653;52.188;8.602;2022-08-11T14:40:12;31.26;24.97
66740;DHT22;53653;52.188;8.602;2022-08-11T14:42:58;31.51;25.67
66740;DHT22;53653;52.188;8.602;2022-08-11T14:45:43;31.43;26.41
66740;DHT22;53653;52.188;8.602;2022-08-11T14:48:28;31.37;25.74
66740;DHT22;53653;52.188;8.602;2022-08-11T14:50:54;31.15;25.68
66740;DHT22;53653;52.188;8.602;2022-08-11T14:53:21;31.26;24.66
66740;DHT22;53653;52.188;8.602;2022-08-11T14:55:47;30.96;24.34
66740;DHT22;53653;52.188;8.602;2022-08-11T14:58:32;31.04;24.45
66740;DHT22;53653;52.188;8.602;2022-08-11T15:01:00;30.95;26.01
66740;DHT22;53653;52.188;8.602;2022-08-11T15:03:30;30.86;26.42
66740;DHT22;53653;52.188;8.602;2022-08-11T15:06:01;30.97;25.88
66740;DHT22;53653;52.188;8.602;2022-08-11T15:08:34;31.19;25.84
66740;DHT22;53653;52.188;8.602;2022-08-11T15:11:24;30.99;26.06
66740;DHT22;53653;52.188;8.602;2022-08-11T15:14:10;31.17;25.69
66740;DHT22;53653;52.188;8.602;2022-08-11T15:16:40;31.03;26.26
66740;DHT22;53653;52.188;8.602;2022-08-11T15:19:24;31.37;26.10
66740;DHT22;53653;52.188;8.602;2022-08-11T15:21:50;31.81;25.32
66740;DHT22;53653;52.188;8.602;2022-08-11T15:24:35;31.13;26.19
66740;DHT22;53653;52.188;8.602;2022-08-11T15:27:04;31.13;26.51
66740;DHT22;53653;52.188;8.602;2022-08-11T15:29:49;30.92;26.48
66740;DHT22;53653;52.188;8.602;2022-08-11T15:32:37;30.89;26.44
66740;DHT22;53653;52.188;8.602;2022-08-11T15:35:23;30.92;26.50
66740;DHT22;53653;52.188;8.602;2022-08-11T15:38:08;30.67;26.79
66740;DHT22;53653;52.188;8.602;2022-08-11T15:40:39;30.64;26.76
66740;DHT22;53653;52.188;8.602;2022-08-11T15:43:32;30.85;26.68
66740;DHT22;53653;52.188;8.602;2022-08-11T15:46:29;31.02;26.10
66740;DHT22;53653;52.188;8.602;2022-08-11T15:49:02;31.06;26.35
66740;DHT22;53653;52.188;8.602;2022-08-11T15:53:57;30.93;26.39
66740;DHT22;53653;52.188;8.602;2022-08-11T15:56:28;30.51;26.63
66740;DHT22;53653;52.188;8.602;2022-08-11T15:58:54;30.37;26.71
66740;DHT22;53653;52.188;8.602;2022-08-11T16:01:41;30.47;26.69
66740;DHT22;53653;52.188;8.602;2022-08-11T16:04:28;30.82;25.90
66740;DHT22;53653;52.188;8.602;2022-08-11T16:07:07;30.75;26.01
66740;DHT22;53653;52.188;8.602;2022-08-11T16:09:46;31.29;24.94
66740;DHT22;53653;52.188;8.602;2022-08-11T16:12:15;31.46;24.78
66740;DHT22;53653;52.188;8.602;2022-08-11T16:14:44;31.13;25.21
66740;DHT22;53653;52.188;8.602;2022-08-11T16:17:34;30.40;26.31
66740;DHT22;53653;52.188;8.602;2022-08-11T16:20:02;30.28;26.50
66740;DHT22;53653;52.188;8.602;2022-08-11T16:22:31;30.14;26.74
66740;DHT22;53653;52.188;8.602;2022-08-11T16:25:08;30.25;26.56
66740;DHT22;53653;52.188;8.602;2022-08-11T16:27:37;30.23;26.68
66740;DHT22;53653;52.188;8.602;2022-08-11T16:30:04;30.11;26.76
66740;DHT22;53653;52.188;8.602;2022-08-11T16:32:33;30.09;26.86
66740;DHT22;53653;52.188;8.602;2022-08-11T16:35:03;29.96;26.74
66740;DHT22;53653;52.188;8.602;2022-08-11T16:37:48;29.94;26.84
66740;DHT22;53653;52.188;8.602;2022-08-11T16:40:34;30.13;27.16
66740;DHT22;53653;52.188;8.602;2022-08-11T16:43:02;30.04;26.67
66740;DHT22;53653;52.188;8.602;2022-08-11T16:45:48;29.94;26.82
66740;DHT22;53653;52.188;8.602;2022-08-11T16:48:35;29.94;26.95
66740;DHT22;53653;52.188;8.602;2022-08-11T16:51:01;29.87;26.78
66740;DHT22;53653;52.188;8.602;2022-08-11T16:53:28;29.84;26.83
66740;DHT22;53653;52.188;8.602;2022-08-11T16:55:55;29.82;27.00
66740;DHT22;53653;52.188;8.602;2022-08-11T16:58:22;29.83;26.93
66740;DHT22;53653;52.188;8.602;2022-08-11T17:01:08;29.77;26.96
66740;DHT22;53653;52.188;8.602;2022-08-11T17:03:40;29.82;26.98
66740;DHT22;53653;52.188;8.602;2022-08-11T17:06:26;29.92;27.16
66740;DHT22;53653;52.188;8.602;2022-08-11T17:09:12;29.79;26.64
66740;DHT22;53653;52.188;8.602;2022-08-11T17:11:58;29.69;27.00
66740;DHT22;53653;52.188;8.602;2022-08-11T17:14:48;29.62;27.03
66740;DHT22;53653;52.188;8.602;2022-08-11T17:17:17;29.59;27.43
66740;DHT22;53653;52.188;8.602;2022-08-11T17:19:49;29.59;27.11
66740;DHT22;53653;52.188;8.602;2022-08-11T17:22:17;29.72;27.22
66740;DHT22;53653;52.188;8.602;2022-08-11T17:25:04;29.48;27.27
66740;DHT22;53653;52.188;8.602;2022-08-11T17:27:31;29.52;27.52
66740;DHT22;53653;52.188;8.602;2022-08-11T17:30:00;29.56;27.52
66740;DHT22;53653;52.188;8.602;2022-08-11T17:32:53;29.43;27.08
66740;DHT22;53653;52.188;8.602;2022-08-11T17:35:39;29.46;26.97
66740;DHT22;53653;52.188;8.602;2022-08-11T17:38:15;29.35;26.95
66740;DHT22;53653;52.188;8.602;2022-08-11T17:40:54;29.26;27.04
66740;DHT22;53653;52.188;8.602;2022-08-11T17:43:39;29.25;27.35
66740;DHT22;53653;52.188;8.602;2022-08-11T17:46:26;29.28;27.33
66740;DHT22;53653;52.188;8.602;2022-08-11T17:49:11;29.21;27.56
66740;DHT22;53653;52.188;8.602;2022-08-11T17:51:40;29.15;27.49
66740;DHT22;53653;52.188;8.602;2022-08-11T17:54:26;29.12;27.79
66740;DHT22;53653;52.188;8.602;2022-08-11T17:57:12;29.12;28.09
66740;DHT22;53653;52.188;8.602;2022-08-11T17:59:58;29.05;28.00
66740;DHT22;53653;52.188;8.602;2022-08-11T18:05:22;28.91;28.17
66740;DHT22;53653;52.188;8.602;2022-08-11T18:07:54;28.95;28.05
66740;DHT22;53653;52.188;8.602;2022-08-11T18:10:39;28.83;28.23
66740;DHT22;53653;52.188;8.602;2022-08-11T18:13:26;28.73;28.65
66740;DHT22;53653;52.188;8.602;2022-08-11T18:16:11;28.64;28.82
66740;DHT22;53653;52.188;8.602;2022-08-11T18:18:56;28.56;29.00
66740;DHT22;53653;52.188;8.602;2022-08-11T18:21:42;28.53;29.18
66740;DHT22;53653;52.188;8.602;2022-08-11T18:24:42;28.46;29.31
66740;DHT22;53653;52.188;8.602;2022-08-11T18:27:30;28.28;29.72
66740;DHT22;53653;52.188;8.602;2022-08-11T18:30:14;28.23;29.77
66740;DHT22;53653;52.188;8.602;2022-08-11T18:33:00;28.18;29.99
66740;DHT22;53653;52.188;8.602;2022-08-11T18:35:49;28.08;30.10
66740;DHT22;53653;52.188;8.602;2022-08-11T18:38:36;28.02;30.36
66740;DHT22;53653;52.188;8.602;2022-08-11T18:41:21;27.95;30.52
66740;DHT22;53653;52.188;8.602;2022-08-11T18:44:07;27.82;30.90
66740;DHT22;53653;52.188;8.602;2022-08-11T18:46:54;27.72;31.15
66740;DHT22;53653;52.188;8.602;2022-08-11T18:49:42;27.65;31.41
66740;DHT22;53653;52.188;8.602;2022-08-11T18:52:27;27.50;31.80
66740;DHT22;53653;52.188;8.602;2022-08-11T18:55:15;27.44;31.96
66740;DHT22;53653;52.188;8.602;2022-08-11T18:58:03;27.34;32.29
66740;DHT22;53653;52.188;8.602;2022-08-11T19:00:48;27.20;32.67
66740;DHT22;53653;52.188;8.602;2022-08-11T19:03:34;27.16;32.75
66740;DHT22;53653;52.188;8.602;2022-08-11T19:06:21;27.10;32.83
66740;DHT22;53653;52.188;8.602;2022-08-11T19:09:09;27.03;32.96
66740;DHT22;53653;52.188;8.602;2022-08-11T19:11:55;27.03;33.13
66740;DHT22;53653;52.188;8.602;2022-08-11T19:14:40;26.99;33.25
66740;DHT22;53653;52.188;8.602;2022-08-11T19:17:25;26.92;33.37
66740;DHT22;53653;52.188;8.602;2022-08-11T19:20:12;26.82;33.89
66740;DHT22;53653;52.188;8.602;2022-08-11T19:22:58;26.69;34.97
66740;DHT22;53653;52.188;8.602;2022-08-11T19:25:44;26.58;34.88
66740;DHT22;53653;52.188;8.602;2022-08-11T19:28:29;26.45;35.63
66740;DHT22;53653;52.188;8.602;2022-08-11T19:31:14;26.40;35.51
66740;DHT22;53653;52.188;8.602;2022-08-11T19:33:59;26.34;35.59
66740;DHT22;53653;52.188;8.602;2022-08-11T19:36:44;26.25;36.45
66740;DHT22;53653;52.188;8.602;2022-08-11T19:39:29;26.23;36.35
66740;DHT22;53653;52.188;8.602;2022-08-11T19:42:14;26.13;36.81
66740;DHT22;53653;52.188;8.602;2022-08-11T19:45:00;26.06;36.03
66740;DHT22;53653;52.188;8.602;2022-08-11T19:47:46;26.01;36.37
66740;DHT22;53653;52.188;8.602;2022-08-11T19:50:32;25.92;36.43
66740;DHT22;53653;52.188;8.602;2022-08-11T19:53:18;25.94;36.94
66740;DHT22;53653;52.188;8.602;2022-08-11T19:56:04;25.89;37.52
66740;DHT22;53653;52.188;8.602;2022-08-11T19:58:50;25.83;38.01
66740;DHT22;53653;52.188;8.602;2022-08-11T20:01:34;25.77;38.13
66740;DHT22;53653;52.188;8.602;2022-08-11T20:04:18;25.73;39.01
66740;DHT22;53653;52.188;8.602;2022-08-11T20:07:03;25.72;39.59
66740;DHT22;53653;52.188;8.602;2022-08-11T20:09:48;25.63;39.61
66740;DHT22;53653;52.188;8.602;2022-08-11T20:12:35;25.48;39.93